Latest Coastal Weather Observations for Coolangatta

IDQ60701

Issued at 2:35 am EST Thursday 24 April 2014 (issued every 10 minutes, with the page automatically refreshed every 10 minutes)

About coastal observations | Map of coastal stations | Coastal observations for QLD | Marine services | Other Formats
Station Details ID: 040717 Name: COOLANGATTA Lat: -28.17 Lon: 153.51 Height: 4.0 m
Data from the previous 72 hours. | See also: Recent months at Coolangatta
Date/Time
EST
Temp

°C
Wind Pressure Rain
since 9am
mm
Weather Cloud Vis
km
Sea
Height
m
Swell
Dir
 
Speed
knots
Gust
knots
hPa Trend Height
m
Period
s
Dir
24/02:30am 16.4 WSW 5 5 1016.0 - 0.0 - - 10 - - - -
24/02:00am 16.2 WSW 5 6 1016.2 - 0.0 - - 10 - - - -
24/01:30am 17.3 WNW 4 6 1016.4 - 0.0 - - 10 - - - -
24/01:00am 17.0 W 5 5 1016.8 - 0.0 - - 10 - - - -
24/12:30am 17.1 W 5 6 1017.1 - 0.0 - - 10 - - - -
24/12:00am 17.5 W 1 4 1017.4 - 0.0 - - 10 - - - -
 
Date/Time
EST
Temp

°C
Wind Pressure Rain
since 9am
mm
Weather Cloud Vis
km
Sea
Height
m
Swell
Dir
 
Speed
knots
Gust
knots
hPa Trend Height
m
Period
s
Dir
23/11:30pm 17.3 W 4 5 1017.7 - 0.0 - - 10 - - - -
23/11:00pm 17.9 W 4 5 1017.9 - 0.0 - - 10 - - - -
23/10:30pm 18.9 W 4 5 1018.0 - 0.0 - - 10 - - - -
23/10:00pm 19.3 W 5 6 1018.1 - 0.0 - - 10 - - - -
23/09:30pm 18.4 W 5 6 1018.0 - 0.0 - - 10 - - - -
23/09:00pm 19.1 W 5 6 1017.9 - 0.0 - - 10 - - - -
23/08:30pm 20.4 W 4 5 1018.0 - 0.0 - Partly cloudy 10 - - - -
23/08:00pm 23.0 N 9 11 1017.8 - 0.0 - Partly cloudy 10 - - - -
23/07:30pm 23.3 N 9 13 1017.5 - 0.0 - - 10 - - - -
23/07:00pm 23.2 N 10 12 1017.4 - 0.0 - - 10 - - - -
23/06:30pm 23.4 N 9 12 1017.1 - 0.0 - - 10 - - - -
23/06:00pm 23.3 N 9 12 1016.7 - 0.0 - - 10 - - - -
23/05:30pm 23.7 N 10 12 1016.6 - 0.0 - - 10 - - - -
23/05:00pm 24.0 N 10 12 1016.2 - 0.0 - - 10 - - - -
23/04:30pm 24.6 NNE 10 13 1016.1 - 0.0 - - 10 - - - -
23/04:00pm 25.4 N 11 14 1016.1 - 0.0 - - 10 - - - -
23/03:30pm 25.6 N 11 14 1016.0 - 0.0 - - 10 - - - -
23/03:00pm 26.1 NNE 11 14 1015.9 - 0.0 - - 10 - - - -
23/02:30pm 25.8 NNE 12 16 1016.0 - 0.0 - - 10 - - - -
23/02:00pm 26.5 N 12 16 1016.0 - 0.0 - - 10 - - - -
23/01:30pm 26.9 NNE 14 17 1016.1 - 0.0 - - 10 - - - -
23/01:00pm 27.2 N 14 17 1016.4 - 0.0 - - 10 - - - -
23/12:30pm 26.6 NNE 13 16 1016.8 - 0.0 - - 10 - - - -
23/12:00pm 26.0 N 13 16 1017.2 - 0.0 - - 10 - - - -
23/11:30am 26.0 NNE 12 15 1017.8 - 0.0 - - 10 - - - -
23/11:00am 26.0 N 12 14 1018.3 - 0.0 - - 10 - - - -
23/10:30am 26.5 N 9 12 1018.7 - 0.0 - - 10 - - - -
23/10:00am 25.4 N 10 11 1019.2 - 0.0 - - 10 - - - -
23/09:30am 25.3 WNW 6 9 1019.4 - 0.0 - - 10 - - - -
23/09:00am 24.7 NW 6 8 1019.6 - 0.0 - - 10 - - - -
23/08:30am 23.7 NW 5 7 1019.8 - 0.0 - - 10 - - - -
23/08:00am 22.2 CALM 0 0 1019.7 - 0.0 - - 10 - - - -
23/07:30am 18.9 CALM 0 0 1019.6 - 0.0 - - 10 - - - -
23/07:00am 16.8 WSW 4 5 1019.5 - 0.0 - - 10 - - - -
23/06:30am 15.0 SW 4 4 1019.4 - 0.0 - - 10 - - - -
23/06:00am 15.7 SW 3 4 1019.0 - 0.0 - - 10 - - - -
23/05:30am 15.6 WSW 5 6 1018.9 - 0.0 - - 10 - - - -
23/05:00am 15.7 WSW 4 5 1018.8 - 0.0 - - 10 - - - -
23/04:30am 15.5 W 4 5 1018.4 - 0.0 - - 10 - - - -
23/04:00am 16.3 WSW 5 6 1018.2 - 0.0 - - 10 - - - -
23/03:30am 16.8 W 3 4 1018.2 - 0.0 - - 10 - - - -
23/03:00am 17.8 WNW 5 6 1018.2 - 0.0 - - 10 - - - -
23/02:30am 17.9 W 5 7 1018.5 - 0.0 - - 10 - - - -
23/02:00am 18.3 WNW 6 7 1018.7 - 0.0 - - 10 - - - -
23/01:30am 18.0 WNW 6 7 1018.8 - 0.0 - - 10 - - - -
23/01:00am 18.2 NW 5 7 1019.1 - 0.0 - - 10 - - - -
23/12:30am 18.7 WNW 5 7 1019.0 - 0.0 - - 10 - - - -
23/12:00am 18.2 WNW 5 7 1019.0 - 0.0 - - 10 - - - -
 
Date/Time
EST
Temp

°C
Wind Pressure Rain
since 9am
mm
Weather Cloud Vis
km
Sea
Height
m
Swell
Dir
 
Speed
knots
Gust
knots
hPa Trend Height
m
Period
s
Dir
22/11:30pm 18.9 WNW 6 7 1019.3 - 0.0 - - 10 - - - -
22/11:00pm 18.1 WNW 6 7 1019.6 - 0.0 - - 10 - - - -
22/10:30pm 16.2 W 4 5 1019.9 - 0.0 - - 10 - - - -
22/10:00pm 17.0 WSW 4 4 1020.0 - 0.0 - - 10 - - - -
22/09:30pm 16.9 W 3 4 1020.0 - 0.0 - - 10 - - - -
22/09:00pm 17.8 W 4 6 1019.7 - 0.0 - - 10 - - - -
22/08:30pm 18.1 W 5 6 1020.0 - 0.0 - - 10 - - - -
22/08:00pm 19.9 W 4 5 1020.0 - 0.0 - - 10 - - - -
22/07:30pm 22.5 N 9 12 1019.8 - 0.0 - - 10 - - - -
22/07:00pm 22.7 N 10 12 1019.6 - 0.0 - - 10 - - - -
22/06:30pm 22.9 N 9 12 1019.5 - 0.0 - - 10 - - - -
22/06:00pm 23.1 N 9 11 1019.2 - 0.0 - - 10 - - - -
22/05:30pm 23.4 N 11 13 1019.2 - 0.0 - - 10 - - - -
22/05:00pm 23.7 N 10 13 1019.0 - 0.0 - - 10 - - - -
22/04:30pm 24.4 NNE 11 14 1018.9 - 0.0 - - 10 - - - -
22/04:00pm 25.2 NNE 12 14 1018.7 - 0.0 - - 10 - - - -
22/03:30pm 25.4 NNE 12 15 1018.4 - 0.0 - - 10 - - - -
22/03:00pm 25.6 NNE 12 14 1018.8 - 0.0 - - 10 - - - -
22/02:30pm 26.1 NNE 12 15 1018.9 - 0.0 - - 10 - - - -
22/02:00pm 26.0 NNE 12 15 1018.7 - 0.0 - - 10 - - - -
22/01:30pm 26.6 NNE 12 15 1018.9 - 0.0 - - 10 - - - -
22/01:00pm 26.6 NNE 12 15 1019.2 - 0.0 - - 10 - - - -
22/12:30pm 26.1 NNE 13 15 1019.8 - 0.0 - - 10 - - - -
22/12:00pm 26.6 N 12 15 1020.4 - 0.0 - - 10 - - - -
22/11:30am 26.3 N 13 16 1021.2 - 0.0 - - 10 - - - -
22/11:00am 26.1 N 10 14 1021.0 - 0.0 - - 10 - - - -
22/10:30am 26.4 N 9 12 1021.2 - 0.0 - - 10 - - - -
22/10:00am 25.8 N 9 14 1021.5 - 0.0 - - 10 - - - -
22/09:30am 25.7 NW 8 12 1021.8 - 0.0 - - 10 - - - -
22/09:00am 25.1 NW 8 12 1021.9 - 0.0 - - 10 - - - -
22/08:30am 24.1 NW 8 12 1022.1 - 0.0 - - 10 - - - -
22/08:00am 23.3 WNW 7 9 1021.8 - 0.0 - - 10 - - - -
22/07:30am 22.1 W 5 7 1021.6 - 0.0 - - 10 - - - -
22/07:00am 20.5 W 5 6 1021.5 - 0.0 - - 10 - - - -
22/06:30am 18.5 W 5 6 1021.2 - 0.0 - - 10 - - - -
22/06:00am 18.4 WNW 5 6 1021.0 - 0.0 - - 10 - - - -
22/05:30am 18.5 WNW 5 6 1020.8 - 0.0 - - 10 - - - -
22/05:00am 18.9 WNW 6 7 1020.6 - 0.0 - - 10 - - - -
22/04:30am 18.7 WNW 5 7 1020.4 - 0.0 - - 10 - - - -
22/04:00am 19.1 WNW 6 7 1020.2 - 0.0 - - 10 - - - -
22/03:30am 19.1 WNW 6 7 1020.1 - 0.0 - - 10 - - - -
22/03:00am 19.1 WNW 5 7 1020.0 - 0.0 - - 10 - - - -
22/02:30am 19.0 WNW 6 7 1020.2 - 0.0 - - 10 - - - -
22/02:00am 18.9 WNW 5 6 1020.3 - 0.0 - - 10 - - - -
22/01:30am 19.3 WNW 5 6 1020.5 - 0.0 - - 10 - - - -
22/01:00am 19.8 WNW 6 7 1020.6 - 0.0 - - 10 - - - -
22/12:30am 19.6 WNW 6 8 1020.8 - 0.0 - - 10 - - - -
22/12:00am 19.3 WNW 5 7 1020.7 - 0.0 - - 10 - - - -
 
Date/Time
EST
Temp

°C
Wind Pressure Rain
since 9am
mm
Weather Cloud Vis
km
Sea
Height
m
Swell
Dir
 
Speed
knots
Gust
knots
hPa Trend Height
m
Period
s
Dir
21/11:30pm 19.6 WNW 5 6 1021.0 - 0.0 - - 10 - - - -
21/11:00pm 20.0 WNW 6 7 1021.1 - 0.0 - - 10 - - - -
21/10:30pm 20.4 WNW 6 8 1021.2 - 0.0 - - 10 - - - -
21/10:00pm 20.2 WNW 6 7 1021.2 - 0.0 - - 10 - - - -
21/09:30pm 20.7 WNW 7 8 1021.0 - 0.0 - - 10 - - - -
21/09:00pm 20.8 WNW 6 7 1020.8 - 0.0 - Mostly clear 10 - - - -
21/08:30pm 21.3 WNW 5 7 1020.9 - 0.0 - - 10 - - - -
21/08:00pm 23.2 N 12 16 1020.6 - 0.0 - Partly cloudy 10 - - - -
21/07:30pm 23.4 N 12 17 1020.4 - 0.0 - - 10 - - - -
21/07:00pm 23.5 N 12 16 1020.0 - 0.0 - - 10 - - - -
21/06:30pm 23.5 N 12 15 1019.6 - 0.0 - - 10 - - - -
21/06:00pm 23.8 N 13 17 1019.1 - 0.0 - - 10 - - - -
21/05:30pm 24.0 N 13 16 1018.9 - 0.0 - - 10 - - - -
21/05:00pm 24.4 N 14 18 1018.5 - 0.0 - - 10 - - - -
21/04:30pm 25.0 N 14 18 1018.2 - 0.0 - - 10 - - - -
21/04:00pm 25.8 N 14 18 1018.0 - 0.0 - - 10 - - - -
21/03:30pm 26.5 N 13 18 1017.9 - 0.0 - - 10 - - - -
21/03:00pm 26.8 N 14 18 1017.8 - 0.0 - - 10 - - - -
21/02:30pm 27.0 N 14 17 1017.9 - 0.0 - - 10 - - - -
21/02:00pm 27.3 N 14 18 1018.1 - 0.0 - - 10 - - - -
21/01:30pm 26.8 N 14 17 1018.4 - 0.0 - - 10 - - - -
21/01:00pm 27.2 N 14 17 1018.7 - 0.0 - - 10 - - - -
21/12:30pm 27.0 N 15 18 1019.1 - 0.0 - - 10 - - - -
21/12:00pm 26.6 N 14 17 1019.4 - 0.0 - - 10 - - - -
21/11:30am 27.0 N 14 17 1019.9 - 0.0 - - 10 - - - -
21/11:00am 26.2 N 13 16 1020.2 - 0.0 - - 10 - - - -
21/10:30am 26.2 N 12 16 1020.6 - 0.0 - - 10 - - - -
21/10:00am 26.1 NNW 10 15 1020.9 - 0.0 - - 10 - - - -
21/09:30am 25.9 NNW 10 14 1021.0 - 0.0 - - 10 - - - -
21/09:00am 25.1 NW 10 16 1020.9 - 0.0 - - 10 - - - -
21/08:30am 24.2 NW 9 13 1021.0 - 0.0 - - 10 - - - -
21/08:00am 23.4 NW 7 9 1020.9 - 0.0 - - 10 - - - -
21/07:30am 21.9 WNW 7 9 1020.6 - 0.0 - - 10 - - - -
21/07:00am 18.9 WNW 5 7 1020.3 - 0.0 - - 10 - - - -
21/06:30am 16.5 WSW 4 5 1020.0 - 0.0 - - 10 - - - -
21/06:00am 15.1 WNW 4 5 1019.5 - 0.0 - - 10 - - - -
21/05:30am 15.7 W 3 4 1019.4 - 0.0 - - 10 - - - -
21/05:00am 16.2 W 3 3 1019.2 - 0.0 - - 10 - - - -
21/04:30am 16.5 W 4 5 1018.8 - 0.0 - - 10 - - - -
21/04:00am 16.8 WNW 5 6 1018.6 - 0.0 - - 10 - - - -
21/03:30am 18.0 WNW 5 6 1018.3 - 0.0 - - 10 - - - -
21/03:00am 17.3 WNW 5 6 1018.2 - 0.0 - - 10 - - - -

Other Formats:

Comma delimited format used in spreadsheet applications
http://www.bom.gov.au/fwo/IDQ60701/IDQ60701.94592.axf

JavaScript Object Notation format (JSON) in row-major order
http://www.bom.gov.au/fwo/IDQ60701/IDQ60701.94592.json